FKYSFKKD

Guest
Details From FKYS - YAOUNDE NSIMALEN
To FKKD - Douala
Flight Number -
Tags generated
Created
Modified
Stats Distance 111 nm / 206 km
Max Altitude 14,300 ft / 4,359 m
Waypoints 4
Social Downloads 9
Likes 0
Share VATSIM

Download

Looking for another format? Having issues loading an existing format? Contact us
Advertisement - Login to hide

Notes

Basic altitude profile: - Ascent Rate: 2500ft/min - Ascent Speed: 250kts - Cruise Altitude: 35000ft - Cruise Speed: 420kts - Descent Rate: 1500ft/min - Descent Speed: 250kts Options: - Use NATs: yes - Use PACOTS: yes - Use low airways: yes - Use high airways: no

Route

FKYS ENUGI R984G EDEBA FKKD

ID Type Via Altitude Latitude Longitude Leg Dist Tot Dist Heading (true) Name
O FKYS APT - 0 ft / 0 m 3.72255˚ 11.55327˚ - 0 nm - YAOUNDE NSIMALEN
ENUGI FIX - 14,300 ft / 4,359 m 3.83556˚ 10.81667˚ 44 nm 44 nm 279° / 279° -
EDEBA FIX R984G (AWY-LO) 7,500 ft / 2,286 m 3.93278˚ 10.15889˚ 39 nm 84 nm 278° / 278° -
O FKKD APT - 0 ft / 0 m 4.01421˚ 9.71654˚ 26 nm 111 nm 280° / 280° Douala

Altitude Profile

Advertisement - Login to hide

FKYS

Details ICAO FKYS (NSI)
Name YAOUNDE NSIMALEN
Region Cameroon
Timezone Africa/Douala (UTC+1.0)
Stats Elevation 2,278 ft / 694 m (AMSL)
Location 3.722554° 11.553270°
Runways 1
Magnetic Variation 0.691° W

METAR

FKYS 111300Z 19005KT 120V220 4500 HZ BKN023 30/21 Q1014 NOSIG

Decode

TAF

TAF FKYS 111100Z 1112/1212 09003KT 4000 HZ SCT020 TEMPO 1120/1206 4000 BR SCT006

Decode

Departure Runways

ID Width Length Bearing (true) Bearing (mag) Surface Threshold Offset Overrun Length
01 148 ft / 45 m 11,220 ft / 3,420 m 9.87° 10.56° Asphalt 0 ft / 0 m 200 ft / 61 m
19 148 ft / 45 m 11,220 ft / 3,420 m 189.87° 190.56° Asphalt 0 ft / 0 m 200 ft / 61 m

FKKD

Details ICAO FKKD (DLA)
Name Douala
Region Cameroon
Timezone Africa/Douala (UTC+1.0)
Stats Elevation 33 ft / 10 m (AMSL)
Location 4.014208° 9.716538°
Runways 2
Magnetic Variation 1.106° W

METAR

FKKD 111300Z VRB03KT 1600 HZ SCT016 FEW020CB 33/21 Q1008 NOSIG

Decode

TAF

TAF FKKD 111100Z 1112/1218 VRB03KT 2000 HZ SCT016 FEW020CB TEMPO 1122/1207 1500 BR

Decode

Destination Runways

ID Width Length Bearing (true) Bearing (mag) Surface Threshold Offset Overrun Length
03 147 ft / 45 m 8,210 ft / 2,502 m 27.00° 28.11° Asphalt 350 ft / 107 m 0 ft / 0 m
12 148 ft / 45 m 9,363 ft / 2,854 m 116.94° 118.05° Asphalt 0 ft / 0 m 164 ft / 50 m
21 147 ft / 45 m 8,210 ft / 2,502 m 207.00° 208.11° Asphalt 350 ft / 107 m 0 ft / 0 m
30 148 ft / 45 m 9,363 ft / 2,854 m 296.94° 298.05° Asphalt 0 ft / 0 m 164 ft / 50 m

Approach Navaids

Runway Type Ident Frequency Range Bearing (true) Bearing (mag) Slope Elevation
30 Localiser DL 110.30 MHz 18 nm / 33 km 297.68° 298.78° - 25 ft / 8 m (AMSL)
30 Glidescope DL 110.30 MHz 10 nm / 19 km 296.94° 298.05° 3.00° 33 ft / 10 m (AMSL)
30 DME DL 110.30 MHz 18 nm / 33 km - - - 33 ft / 10 m (AMSL)

Popular Alternatives